createdAt,value
2022-09-27T00:04:40.701Z,97115.78
2022-09-27T00:10:42.602Z,97111.81
2022-09-27T00:16:46.724Z,97107.16
2022-09-27T00:29:19.516Z,97099.63
2022-09-27T00:35:21.452Z,97101.84
2022-09-27T00:41:34.143Z,97098.66
2022-09-27T00:47:48.647Z,97091.13
2022-09-27T00:53:54.168Z,97083.56
2022-09-27T01:00:09.891Z,97083.25
2022-09-27T01:06:12.512Z,97076.25
2022-09-27T01:12:30.301Z,97065.53
2022-09-27T01:19:20.549Z,97064.19
2022-09-27T01:26:09.840Z,97060.66
2022-09-27T01:32:35.917Z,97056.97
2022-09-27T01:38:47.952Z,97055.91
2022-09-27T01:45:01.213Z,97061.72
2022-09-27T01:51:14.594Z,97050.22
2022-09-27T01:57:23.431Z,97046.25
2022-09-27T02:03:37.528Z,97041.38
2022-09-27T02:09:51.502Z,97039.19
2022-09-27T02:16:33.886Z,97034.09
2022-09-27T02:22:56.888Z,97022.44
2022-09-27T02:29:05.189Z,97023.47
2022-09-27T02:35:24.859Z,97027.16
2022-09-27T02:41:26.863Z,97021.81
2022-09-27T02:47:50.212Z,97032.75
2022-09-27T02:54:33.777Z,97022.88
2022-09-27T03:00:57.950Z,97016.66
2022-09-27T03:07:01.519Z,97006.47
2022-09-27T03:13:04.929Z,97016.72
2022-09-27T03:19:10.330Z,97006.16
2022-09-27T03:25:12.311Z,97006.16
2022-09-27T03:31:17.595Z,97009.38
2022-09-27T03:37:19.620Z,97008.38
2022-09-27T03:43:25.216Z,97001.09
2022-09-27T03:49:29.943Z,97000.34
2022-09-27T03:55:37.672Z,96998.47
2022-09-27T04:01:43.355Z,97005.38
2022-09-27T04:07:57.802Z,96999.41
2022-09-27T04:13:59.726Z,97002.66
2022-09-27T04:20:03.482Z,96990.84
2022-09-27T04:26:05.855Z,96980.97
2022-09-27T04:32:07.765Z,96988.25
2022-09-27T04:38:09.676Z,96996.25
2022-09-27T04:44:11.686Z,96994.84
2022-09-27T04:50:15.289Z,96993.03
2022-09-27T04:56:17.354Z,96990.28
2022-09-27T05:02:19.467Z,97009.16
2022-09-27T05:08:21.680Z,97021.88
2022-09-27T05:14:23.649Z,97022.25
2022-09-27T05:20:26.110Z,97032.09
2022-09-27T05:26:28.043Z,97037.06
2022-09-27T05:32:30.021Z,97051.50
2022-09-27T05:38:32.141Z,97056.59
2022-09-27T05:44:35.342Z,97065.97
2022-09-27T05:50:37.279Z,97072.00
2022-09-27T05:56:39.215Z,97084.66
2022-09-27T06:02:48.987Z,97080.78
2022-09-27T06:08:51.097Z,97096.09
2022-09-27T06:14:53.235Z,97103.41
2022-09-27T06:20:55.490Z,97095.59
2022-09-27T06:26:57.440Z,97103.47
2022-09-27T06:33:01.889Z,97111.13
2022-09-27T06:39:04.167Z,97118.94
2022-09-27T06:45:06.797Z,97133.63
2022-09-27T06:51:08.750Z,97136.81
2022-09-27T06:57:30.804Z,97140.03
2022-09-27T07:03:40.133Z,97151.25
2022-09-27T07:09:43.263Z,97151.28
2022-09-27T07:15:45.303Z,97161.00
2022-09-27T07:21:50.371Z,97175.97
2022-09-27T07:27:54.335Z,97194.00
2022-09-27T07:33:56.668Z,97195.75
2022-09-27T07:40:01.976Z,97201.56
2022-09-27T07:46:07.989Z,97208.59
2022-09-27T07:52:13.149Z,97209.44
2022-09-27T07:58:15.059Z,97209.00
2022-09-27T08:04:16.978Z,97226.81
2022-09-27T08:10:23.785Z,97231.81
2022-09-27T08:22:43.602Z,97253.69
2022-09-27T08:28:48.404Z,97256.75
2022-09-27T08:34:50.331Z,97266.75
2022-09-27T08:41:01.520Z,97267.72
2022-09-27T08:47:21.647Z,97275.69
2022-09-27T08:53:38.146Z,97283.72
2022-09-27T09:00:00.881Z,97288.44
2022-09-27T09:06:17.903Z,97305.47
2022-09-27T09:12:57.212Z,97306.56
2022-09-27T09:27:09.290Z,97318.09
2022-09-27T09:33:41.342Z,97317.34
2022-09-27T09:39:51.382Z,97321.03
2022-09-27T09:46:14.564Z,97320.22
2022-09-27T09:52:23.625Z,97313.28
2022-09-27T09:58:42.809Z,97315.69
2022-09-27T10:11:01.503Z,97313.38
2022-09-27T10:17:10.907Z,97313.59
2022-09-27T10:23:21.476Z,97317.19
2022-09-27T10:29:37.862Z,97331.31
2022-09-27T10:35:45.006Z,97317.47
2022-09-27T10:41:49.514Z,97331.09
2022-09-27T10:47:55.047Z,97331.16
2022-09-27T10:54:03.434Z,97324.22
2022-09-27T11:06:23.848Z,97318.84
2022-09-27T11:12:25.817Z,97310.31
2022-09-27T11:18:39.539Z,97316.94
2022-09-27T11:25:31.551Z,97313.78
2022-09-27T11:31:55.565Z,97321.25
2022-09-27T11:38:12.297Z,97329.78
2022-09-27T11:52:06.296Z,97328.41
2022-09-27T11:58:40.460Z,97324.09
2022-09-27T12:05:13.255Z,97323.28
2022-09-27T12:11:51.584Z,97331.81
2022-09-27T12:18:08.070Z,97343.72
2022-09-27T12:24:21.812Z,97393.38
2022-09-27T12:30:23.827Z,97389.06
2022-09-27T12:36:38.878Z,97372.19
2022-09-27T12:43:11.170Z,97373.16
2022-09-27T12:49:42.524Z,97386.53
2022-09-27T12:56:06.580Z,97385.44
2022-09-27T13:02:39.150Z,97381.44
2022-09-27T13:09:00.609Z,97370.88
2022-09-27T13:15:30.717Z,97367.47
2022-09-27T13:22:00.060Z,97370.28
2022-09-27T13:28:02.657Z,97367.91
2022-09-27T13:34:04.911Z,97368.09
2022-09-27T13:40:15.973Z,97371.06
2022-09-27T13:46:23.302Z,97382.84
2022-09-27T13:52:56.451Z,97380.75
2022-09-27T13:59:02.654Z,97378.69
2022-09-27T14:05:11.103Z,97369.59
2022-09-27T14:11:21.525Z,97373.63
2022-09-27T14:17:26.088Z,97378.81
2022-09-27T14:23:34.702Z,97385.22
2022-09-27T14:29:47.851Z,97384.50
2022-09-27T14:36:08.827Z,97386.06
2022-09-27T14:43:39.126Z,97395.28
2022-09-27T14:50:01.450Z,97388.13
2022-09-27T14:56:04.406Z,97403.69
2022-09-27T15:02:20.319Z,97390.13
2022-09-27T15:08:25.601Z,97386.56
2022-09-27T15:14:32.928Z,97395.84
2022-09-27T15:20:35.901Z,97396.91
2022-09-27T15:26:47.329Z,97397.72
2022-09-27T15:32:53.052Z,97396.88
2022-09-27T15:39:12.227Z,97403.78
2022-09-27T15:45:49.128Z,97400.41
2022-09-27T16:05:03.437Z,97428.09
2022-09-27T16:11:05.724Z,97423.13
2022-09-27T16:17:07.636Z,97425.72
2022-09-27T16:23:09.655Z,97419.91
2022-09-27T16:29:14.348Z,97428.09
2022-09-27T16:35:18.925Z,97419.97
2022-09-27T16:41:22.359Z,97434.69
2022-09-27T16:47:24.275Z,97424.50
2022-09-27T16:53:26.213Z,97425.50
2022-09-27T16:59:34.525Z,97432.88
2022-09-27T17:05:39.583Z,97438.06
2022-09-27T17:11:46.820Z,97434.75
2022-09-27T17:17:53.281Z,97429.56
2022-09-27T17:23:56.206Z,97433.63
2022-09-27T17:29:58.686Z,97441.09
2022-09-27T17:36:09.528Z,97440.16
2022-09-27T17:42:12.580Z,97445.34
2022-09-27T17:48:36.519Z,97453.13
2022-09-27T17:54:38.790Z,97451.84
2022-09-27T18:00:41.185Z,97455.34
2022-09-27T18:06:46.299Z,97448.03
2022-09-27T18:12:50.688Z,97444.63
2022-09-27T18:19:03.220Z,97447.84
2022-09-27T18:25:09.390Z,97440.50
2022-09-27T18:31:16.931Z,97442.00
2022-09-27T18:37:19.641Z,97449.56
2022-09-27T18:43:26.835Z,97451.88
2022-09-27T18:49:34.195Z,97452.25
2022-09-27T18:55:49.006Z,97469.78
2022-09-27T19:01:54.251Z,97467.59
2022-09-27T19:07:56.262Z,97455.59
2022-09-27T19:13:59.938Z,97466.88
2022-09-27T19:20:02.876Z,97459.41
2022-09-27T19:26:08.601Z,97469.47
2022-09-27T19:32:10.568Z,97481.25
2022-09-27T19:38:36.429Z,97477.09
2022-09-27T19:44:38.296Z,97462.66
2022-09-27T19:50:40.212Z,97465.41
2022-09-27T19:56:42.133Z,97469.88
2022-09-27T20:02:55.508Z,97476.63
2022-09-27T20:15:44.339Z,97464.09
2022-09-27T20:21:46.356Z,97461.59
2022-09-27T20:27:48.263Z,97468.72
2022-09-27T20:33:51.019Z,97473.72
2022-09-27T20:39:53.545Z,97473.97
2022-09-27T20:52:33.778Z,97462.81
2022-09-27T20:58:35.645Z,97464.94
2022-09-27T21:04:37.871Z,97470.09
2022-09-27T21:10:42.259Z,97466.91
2022-09-27T21:16:45.097Z,97459.59
2022-09-27T21:23:06.244Z,97466.75
2022-09-27T21:29:11.664Z,97451.03
2022-09-27T21:35:18.475Z,97460.34
2022-09-27T21:47:45.009Z,97453.94
2022-09-27T21:54:09.572Z,97456.53
2022-09-27T22:00:14.953Z,97451.63
2022-09-27T22:06:27.477Z,97454.47
2022-09-27T22:12:32.218Z,97448.69
2022-09-27T22:18:37.347Z,97455.03
2022-09-27T22:24:39.265Z,97452.34
2022-09-27T22:30:41.208Z,97451.41
2022-09-27T22:36:46.117Z,97451.88
2022-09-27T22:49:07.278Z,97442.88
2022-09-27T22:55:09.669Z,97440.25
2022-09-27T23:01:19.577Z,97429.25
2022-09-27T23:07:21.777Z,97432.97
2022-09-27T23:13:23.864Z,97426.94
2022-09-27T23:19:26.916Z,97416.50
2022-09-27T23:25:28.975Z,97418.06
2022-09-27T23:31:32.757Z,97418.44
2022-09-27T23:37:34.764Z,97404.34
2022-09-27T23:43:37.026Z,97389.09
2022-09-27T23:49:38.909Z,97374.41
2022-09-27T23:55:40.794Z,97375.72
